Airfield :
LOGIN :

Register | Disclaimer

   EN    FR    IT 

 










Legend :    VFR   Marginal VFR   IFR   Intensive IFR   Very Intensive IFR
Visi :
Ceiling :
>= 8 km
>= 3000ft
5 to 8 km
1000 to 3000 ft
1500m to 5 km
500 to 1000 ft
800 to 1500m
200 to 500 ft
< 800m
< 200 ft
Symbols :   Thunderstorms  Fog  Heavy snow  Heavy precipitations  Wind > 20 kt
SIGMETs :     Misc.  Thunderstorms  Icing  Turbulence  Mountain Waves  Volcanic Ashes






- Airport Elevation : 299 ft
- IATA code : EDM


LFRI - La Roche Sur Yon - Les Ajoncs

CURRENT METAR :
  • 170700Z AUTO 03003KT 0800 0750 R28/1000N FG VV/// 05/05 Q1037 TEMPO 0400 FG

EXPIRED METARs :
  • 170630Z AUTO 05003KT 1000 R28/1200D BR VV/// 05/05 Q1036 TEMPO 0400 FG
  • 170600Z AUTO 02003KT 0600 0500 R28/0900U FG VV/// 05/05 Q1036 NOSIG
  • 170530Z AUTO 02003KT 0550 0500 R28/0750N FG VV/// 04/04 Q1036 NOSIG
  • 170500Z AUTO VRB02KT 0600 0550 R28/0700N FG VV/// 04/04 Q1036
  • 170430Z AUTO VRB01KT 0650 0600 R28/0800N FG VV/// 04/04 Q1036

TAF TAF LFRI
Valid from the 17 at 06:00 until the 18 at 06:00 UTC


170500Z 1706/1806 VRB02KT 2000 BR OVC003
TEMPO 1706/1711 0400 FG VV///
BECMG 1711/1713 9999 NSW BKN012
BECMG 1714/1716 BKN020
BECMG 1720/1722 06008KT BKN006
TEMPO 1800/1806 BKN003



MET'MAP, your aeronautical weather chart ! - Copyright ORBIFLY December 2007 - Disclaimer

ORBIFLY MET'MAP TEAM :

Programming & Development : Alexandra Zaïnal
Concept & original design : Baudouin d'Aumeries
Assistance for programming : Marc-Olivier Méhu
Technical & hardware support : Manuel Goepfert

Contact : metmap@orbifly.com




SOURCES & CREDITS :

   NOAA